sensor_id;sensor_type;location;lat;lon;timestamp;temperature;humidity
1602;DHT22;794;48.592;9.634;2023-03-01T00:01:13;0.60;1.00
1602;DHT22;794;48.592;9.634;2023-03-01T00:03:42;1.10;1.00
1602;DHT22;794;48.592;9.634;2023-03-01T00:06:10;0.80;1.00
1602;DHT22;794;48.592;9.634;2023-03-01T00:08:37;-1.80;1.00
1602;DHT22;794;48.592;9.634;2023-03-01T00:11:06;-1.80;1.00
1602;DHT22;794;48.592;9.634;2023-03-01T00:13:33;-1.30;1.00
1602;DHT22;794;48.592;9.634;2023-03-01T00:16:02;0.50;1.00
1602;DHT22;794;48.592;9.634;2023-03-01T00:18:29;-1.90;1.00
1602;DHT22;794;48.592;9.634;2023-03-01T00:20:58;-2.00;1.00
1602;DHT22;794;48.592;9.634;2023-03-01T00:23:26;-1.90;1.00
1602;DHT22;794;48.592;9.634;2023-03-01T00:25:53;-1.80;1.00
1602;DHT22;794;48.592;9.634;2023-03-01T00:28:21;-1.80;1.00
1602;DHT22;794;48.592;9.634;2023-03-01T00:30:48;-2.00;1.00
1602;DHT22;794;48.592;9.634;2023-03-01T00:33:15;0.30;1.00
1602;DHT22;794;48.592;9.634;2023-03-01T00:35:42;0.30;1.00
1602;DHT22;794;48.592;9.634;2023-03-01T00:38:10;0.10;1.00
1602;DHT22;794;48.592;9.634;2023-03-01T00:40:37;0.10;1.00
1602;DHT22;794;48.592;9.634;2023-03-01T00:43:04;-0.40;1.00
1602;DHT22;794;48.592;9.634;2023-03-01T00:45:32;-2.60;1.00
1602;DHT22;794;48.592;9.634;2023-03-01T00:47:59;-2.70;1.00
1602;DHT22;794;48.592;9.634;2023-03-01T00:50:26;0.10;1.00
1602;DHT22;794;48.592;9.634;2023-03-01T00:52:54;-2.70;1.00
1602;DHT22;794;48.592;9.634;2023-03-01T00:55:23;-0.10;1.00
1602;DHT22;794;48.592;9.634;2023-03-01T00:57:50;-0.30;1.00
1602;DHT22;794;48.592;9.634;2023-03-01T01:00:18;-2.40;1.00
1602;DHT22;794;48.592;9.634;2023-03-01T01:02:46;-2.30;1.00
1602;DHT22;794;48.592;9.634;2023-03-01T01:05:13;-2.40;1.00
1602;DHT22;794;48.592;9.634;2023-03-01T01:07:40;0.10;1.00
1602;DHT22;794;48.592;9.634;2023-03-01T01:10:08;-0.80;1.00
1602;DHT22;794;48.592;9.634;2023-03-01T01:12:39;-1.80;1.00
1602;DHT22;794;48.592;9.634;2023-03-01T01:15:07;0.40;1.00
1602;DHT22;794;48.592;9.634;2023-03-01T01:17:34;-2.00;1.00
1602;DHT22;794;48.592;9.634;2023-03-01T01:20:01;0.60;1.00
1602;DHT22;794;48.592;9.634;2023-03-01T01:22:28;-1.60;1.00
1602;DHT22;794;48.592;9.634;2023-03-01T01:24:55;0.20;1.00
1602;DHT22;794;48.592;9.634;2023-03-01T01:27:22;-1.50;1.00
1602;DHT22;794;48.592;9.634;2023-03-01T01:29:52;-1.50;1.00
1602;DHT22;794;48.592;9.634;2023-03-01T01:32:19;1.00;1.00
1602;DHT22;794;48.592;9.634;2023-03-01T01:34:46;0.00;1.00
1602;DHT22;794;48.592;9.634;2023-03-01T01:37:13;-1.00;1.00
1602;DHT22;794;48.592;9.634;2023-03-01T01:39:40;-1.30;1.00
1602;DHT22;794;48.592;9.634;2023-03-01T01:42:13;-0.90;1.00
1602;DHT22;794;48.592;9.634;2023-03-01T01:44:44;1.00;1.00
1602;DHT22;794;48.592;9.634;2023-03-01T01:47:16;0.40;1.00
1602;DHT22;794;48.592;9.634;2023-03-01T01:49:47;-0.90;1.00
1602;DHT22;794;48.592;9.634;2023-03-01T01:52:18;1.40;1.00
1602;DHT22;794;48.592;9.634;2023-03-01T01:54:49;-0.40;1.00
1602;DHT22;794;48.592;9.634;2023-03-01T01:57:19;-0.70;1.00
1602;DHT22;794;48.592;9.634;2023-03-01T01:59:51;1.90;1.00
1602;DHT22;794;48.592;9.634;2023-03-01T02:02:21;-0.40;1.00
1602;DHT22;794;48.592;9.634;2023-03-01T02:04:48;0.00;1.00
1602;DHT22;794;48.592;9.634;2023-03-01T02:07:18;1.80;1.00
1602;DHT22;794;48.592;9.634;2023-03-01T02:09:48;0.00;1.00
1602;DHT22;794;48.592;9.634;2023-03-01T02:12:17;1.60;1.00
1602;DHT22;794;48.592;9.634;2023-03-01T02:14:45;-0.20;1.00
1602;DHT22;794;48.592;9.634;2023-03-01T02:17:14;1.10;1.00
1602;DHT22;794;48.592;9.634;2023-03-01T02:19:54;-0.20;1.00
1602;DHT22;794;48.592;9.634;2023-03-01T02:22:25;2.10;1.00
1602;DHT22;794;48.592;9.634;2023-03-01T02:25:08;0.10;1.00
1602;DHT22;794;48.592;9.634;2023-03-01T02:27:46;1.20;1.00
1602;DHT22;794;48.592;9.634;2023-03-01T02:30:18;1.80;1.00
1602;DHT22;794;48.592;9.634;2023-03-01T02:32:45;0.00;1.00
1602;DHT22;794;48.592;9.634;2023-03-01T02:35:14;1.60;1.00
1602;DHT22;794;48.592;9.634;2023-03-01T02:37:43;1.00;1.00
1602;DHT22;794;48.592;9.634;2023-03-01T02:40:13;-0.30;1.00
1602;DHT22;794;48.592;9.634;2023-03-01T02:42:47;0.00;1.00
1602;DHT22;794;48.592;9.634;2023-03-01T02:45:17;0.60;1.00
1602;DHT22;794;48.592;9.634;2023-03-01T02:47:44;1.50;1.00
1602;DHT22;794;48.592;9.634;2023-03-01T02:50:19;0.50;1.00
1602;DHT22;794;48.592;9.634;2023-03-01T02:52:56;-0.30;1.00
1602;DHT22;794;48.592;9.634;2023-03-01T02:55:24;1.80;1.00
1602;DHT22;794;48.592;9.634;2023-03-01T02:57:51;-0.20;1.00
1602;DHT22;794;48.592;9.634;2023-03-01T03:00:21;0.50;1.00
1602;DHT22;794;48.592;9.634;2023-03-01T03:02:52;-0.20;1.00
1602;DHT22;794;48.592;9.634;2023-03-01T03:05:21;1.50;1.00
1602;DHT22;794;48.592;9.634;2023-03-01T03:07:50;2.00;1.00
1602;DHT22;794;48.592;9.634;2023-03-01T03:10:19;2.00;1.00
1602;DHT22;794;48.592;9.634;2023-03-01T03:12:49;0.00;1.00
1602;DHT22;794;48.592;9.634;2023-03-01T03:15:16;1.50;1.00
1602;DHT22;794;48.592;9.634;2023-03-01T03:17:44;0.10;1.00
1602;DHT22;794;48.592;9.634;2023-03-01T03:20:13;0.70;1.00
1602;DHT22;794;48.592;9.634;2023-03-01T03:22:44;2.50;1.00
1602;DHT22;794;48.592;9.634;2023-03-01T03:25:12;1.70;1.00
1602;DHT22;794;48.592;9.634;2023-03-01T03:27:41;-0.10;1.00
1602;DHT22;794;48.592;9.634;2023-03-01T03:30:12;1.50;1.00
1602;DHT22;794;48.592;9.634;2023-03-01T03:32:40;0.50;1.00
1602;DHT22;794;48.592;9.634;2023-03-01T03:35:10;2.50;1.00
1602;DHT22;794;48.592;9.634;2023-03-01T03:37:37;0.80;1.00
1602;DHT22;794;48.592;9.634;2023-03-01T03:40:21;1.20;1.00
1602;DHT22;794;48.592;9.634;2023-03-01T03:42:48;1.60;1.00
1602;DHT22;794;48.592;9.634;2023-03-01T03:45:16;2.20;1.00
1602;DHT22;794;48.592;9.634;2023-03-01T03:47:43;2.40;1.00
1602;DHT22;794;48.592;9.634;2023-03-01T03:50:13;2.30;1.00
1602;DHT22;794;48.592;9.634;2023-03-01T03:52:40;2.70;1.00
1602;DHT22;794;48.592;9.634;2023-03-01T03:55:09;2.20;1.00
1602;DHT22;794;48.592;9.634;2023-03-01T03:57:37;0.30;1.00
1602;DHT22;794;48.592;9.634;2023-03-01T04:00:06;1.80;1.00
1602;DHT22;794;48.592;9.634;2023-03-01T04:02:38;0.50;1.00
1602;DHT22;794;48.592;9.634;2023-03-01T04:05:06;2.00;1.00
1602;DHT22;794;48.592;9.634;2023-03-01T04:07:34;0.60;1.00
1602;DHT22;794;48.592;9.634;2023-03-01T04:10:02;1.20;1.00
1602;DHT22;794;48.592;9.634;2023-03-01T04:12:29;0.20;1.00
1602;DHT22;794;48.592;9.634;2023-03-01T04:14:59;2.50;1.00
1602;DHT22;794;48.592;9.634;2023-03-01T04:17:26;0.60;1.00
1602;DHT22;794;48.592;9.634;2023-03-01T04:19:53;1.80;1.00
1602;DHT22;794;48.592;9.634;2023-03-01T04:22:20;0.50;1.00
1602;DHT22;794;48.592;9.634;2023-03-01T04:24:48;1.70;1.00
1602;DHT22;794;48.592;9.634;2023-03-01T04:27:15;0.30;1.00
1602;DHT22;794;48.592;9.634;2023-03-01T04:29:42;0.70;1.00
1602;DHT22;794;48.592;9.634;2023-03-01T04:32:09;0.20;1.00
1602;DHT22;794;48.592;9.634;2023-03-01T04:34:36;0.20;1.00
1602;DHT22;794;48.592;9.634;2023-03-01T04:37:03;0.50;1.00
1602;DHT22;794;48.592;9.634;2023-03-01T04:39:30;2.70;1.00
1602;DHT22;794;48.592;9.634;2023-03-01T04:41:59;0.20;1.00
1602;DHT22;794;48.592;9.634;2023-03-01T04:44:26;0.10;1.00
1602;DHT22;794;48.592;9.634;2023-03-01T04:46:53;0.50;1.00
1602;DHT22;794;48.592;9.634;2023-03-01T04:49:20;1.70;1.00
1602;DHT22;794;48.592;9.634;2023-03-01T04:51:47;2.10;1.00
1602;DHT22;794;48.592;9.634;2023-03-01T04:54:14;1.20;1.00
1602;DHT22;794;48.592;9.634;2023-03-01T04:56:41;0.10;1.00
1602;DHT22;794;48.592;9.634;2023-03-01T04:59:10;0.50;1.00
1602;DHT22;794;48.592;9.634;2023-03-01T05:01:39;1.70;1.00
1602;DHT22;794;48.592;9.634;2023-03-01T05:04:08;2.50;1.00
1602;DHT22;794;48.592;9.634;2023-03-01T05:06:39;1.60;1.00
1602;DHT22;794;48.592;9.634;2023-03-01T05:09:06;0.80;1.00
1602;DHT22;794;48.592;9.634;2023-03-01T05:11:33;2.80;1.00
1602;DHT22;794;48.592;9.634;2023-03-01T05:14:01;0.40;1.00
1602;DHT22;794;48.592;9.634;2023-03-01T05:16:30;2.50;1.00
1602;DHT22;794;48.592;9.634;2023-03-01T05:18:57;2.20;1.00
1602;DHT22;794;48.592;9.634;2023-03-01T05:21:26;2.80;1.00
1602;DHT22;794;48.592;9.634;2023-03-01T05:23:53;1.10;1.00
1602;DHT22;794;48.592;9.634;2023-03-01T05:26:20;2.20;1.00
1602;DHT22;794;48.592;9.634;2023-03-01T05:28:52;2.40;1.00
1602;DHT22;794;48.592;9.634;2023-03-01T05:31:23;0.60;1.00
1602;DHT22;794;48.592;9.634;2023-03-01T05:33:52;2.50;1.00
1602;DHT22;794;48.592;9.634;2023-03-01T05:36:19;2.60;1.00
1602;DHT22;794;48.592;9.634;2023-03-01T05:38:46;0.60;1.00
1602;DHT22;794;48.592;9.634;2023-03-01T05:41:14;2.30;1.00
1602;DHT22;794;48.592;9.634;2023-03-01T05:43:42;0.20;1.00
1602;DHT22;794;48.592;9.634;2023-03-01T05:46:10;1.00;1.00
1602;DHT22;794;48.592;9.634;2023-03-01T05:48:38;2.60;1.00
1602;DHT22;794;48.592;9.634;2023-03-01T05:51:07;1.60;1.00
1602;DHT22;794;48.592;9.634;2023-03-01T05:53:34;0.20;1.00
1602;DHT22;794;48.592;9.634;2023-03-01T05:56:03;1.90;1.00
1602;DHT22;794;48.592;9.634;2023-03-01T05:58:30;-0.20;1.00
1602;DHT22;794;48.592;9.634;2023-03-01T06:00:57;-0.30;1.00
1602;DHT22;794;48.592;9.634;2023-03-01T06:03:23;1.60;1.00
1602;DHT22;794;48.592;9.634;2023-03-01T06:05:55;2.00;1.00
1602;DHT22;794;48.592;9.634;2023-03-01T06:08:24;0.00;1.00
1602;DHT22;794;48.592;9.634;2023-03-01T06:10:52;-0.20;1.00
1602;DHT22;794;48.592;9.634;2023-03-01T06:13:19;2.10;1.00
1602;DHT22;794;48.592;9.634;2023-03-01T06:15:46;0.00;1.00
1602;DHT22;794;48.592;9.634;2023-03-01T06:18:13;1.70;1.00
1602;DHT22;794;48.592;9.634;2023-03-01T06:20:40;1.20;1.00
1602;DHT22;794;48.592;9.634;2023-03-01T06:23:07;1.50;1.00
1602;DHT22;794;48.592;9.634;2023-03-01T06:25:35;-0.20;1.00
1602;DHT22;794;48.592;9.634;2023-03-01T06:28:02;1.30;1.00
1602;DHT22;794;48.592;9.634;2023-03-01T06:30:30;1.50;1.00
1602;DHT22;794;48.592;9.634;2023-03-01T06:32:57;1.90;1.00
1602;DHT22;794;48.592;9.634;2023-03-01T06:35:29;-0.30;1.00
1602;DHT22;794;48.592;9.634;2023-03-01T06:37:57;1.60;1.00
1602;DHT22;794;48.592;9.634;2023-03-01T06:40:24;-0.40;1.00
1602;DHT22;794;48.592;9.634;2023-03-01T06:42:52;-0.10;1.00
1602;DHT22;794;48.592;9.634;2023-03-01T06:45:20;1.80;1.00
1602;DHT22;794;48.592;9.634;2023-03-01T06:47:47;2.00;1.00
1602;DHT22;794;48.592;9.634;2023-03-01T06:50:15;1.50;1.00
1602;DHT22;794;48.592;9.634;2023-03-01T06:52:41;-0.40;1.00
1602;DHT22;794;48.592;9.634;2023-03-01T06:55:10;-0.50;1.00
1602;DHT22;794;48.592;9.634;2023-03-01T06:57:37;2.10;1.00
1602;DHT22;794;48.592;9.634;2023-03-01T07:00:07;1.70;1.00
1602;DHT22;794;48.592;9.634;2023-03-01T07:02:34;0.10;1.00
1602;DHT22;794;48.592;9.634;2023-03-01T07:05:01;1.60;1.00
1602;DHT22;794;48.592;9.634;2023-03-01T07:07:28;0.00;1.00
1602;DHT22;794;48.592;9.634;2023-03-01T07:09:55;0.10;1.00
1602;DHT22;794;48.592;9.634;2023-03-01T07:12:22;1.90;1.00
1602;DHT22;794;48.592;9.634;2023-03-01T07:14:49;2.10;1.00
1602;DHT22;794;48.592;9.634;2023-03-01T07:17:18;2.10;1.00
1602;DHT22;794;48.592;9.634;2023-03-01T07:19:45;0.50;1.00
1602;DHT22;794;48.592;9.634;2023-03-01T07:22:12;-0.30;1.00
1602;DHT22;794;48.592;9.634;2023-03-01T07:24:38;2.10;1.00
1602;DHT22;794;48.592;9.634;2023-03-01T07:27:05;-1.00;1.00
1602;DHT22;794;48.592;9.634;2023-03-01T07:29:32;1.30;1.00
1602;DHT22;794;48.592;9.634;2023-03-01T07:32:02;0.80;1.00
1602;DHT22;794;48.592;9.634;2023-03-01T07:34:30;2.20;1.00
1602;DHT22;794;48.592;9.634;2023-03-01T07:36:57;0.00;1.00
1602;DHT22;794;48.592;9.634;2023-03-01T07:39:24;1.50;1.00
1602;DHT22;794;48.592;9.634;2023-03-01T07:41:51;0.70;1.00
1602;DHT22;794;48.592;9.634;2023-03-01T07:44:18;2.70;1.00
1602;DHT22;794;48.592;9.634;2023-03-01T07:46:45;0.10;1.00
1602;DHT22;794;48.592;9.634;2023-03-01T07:49:13;0.80;1.00
1602;DHT22;794;48.592;9.634;2023-03-01T07:51:43;0.60;1.00
1602;DHT22;794;48.592;9.634;2023-03-01T07:54:10;2.40;1.00
1602;DHT22;794;48.592;9.634;2023-03-01T07:56:37;2.50;1.00
1602;DHT22;794;48.592;9.634;2023-03-01T07:59:04;1.40;1.00
1602;DHT22;794;48.592;9.634;2023-03-01T08:01:31;2.00;1.00
1602;DHT22;794;48.592;9.634;2023-03-01T08:03:58;0.50;1.00
1602;DHT22;794;48.592;9.634;2023-03-01T08:06:24;3.00;1.00
1602;DHT22;794;48.592;9.634;2023-03-01T08:08:53;3.60;1.00
1602;DHT22;794;48.592;9.634;2023-03-01T08:11:21;1.80;1.00
1602;DHT22;794;48.592;9.634;2023-03-01T08:13:48;3.70;1.00
1602;DHT22;794;48.592;9.634;2023-03-01T08:16:16;3.40;1.00
1602;DHT22;794;48.592;9.634;2023-03-01T08:18:43;2.90;1.00
1602;DHT22;794;48.592;9.634;2023-03-01T08:21:12;4.00;1.00
1602;DHT22;794;48.592;9.634;2023-03-01T08:23:40;3.40;1.00
1602;DHT22;794;48.592;9.634;2023-03-01T08:26:11;4.40;1.00
1602;DHT22;794;48.592;9.634;2023-03-01T08:28:39;4.30;1.00
1602;DHT22;794;48.592;9.634;2023-03-01T08:31:14;4.70;1.00
1602;DHT22;794;48.592;9.634;2023-03-01T08:33:41;5.60;1.00
1602;DHT22;794;48.592;9.634;2023-03-01T08:36:11;4.90;1.00
1602;DHT22;794;48.592;9.634;2023-03-01T08:38:41;4.20;1.00
1602;DHT22;794;48.592;9.634;2023-03-01T08:41:13;4.10;1.00
1602;DHT22;794;48.592;9.634;2023-03-01T08:43:40;5.50;1.00
1602;DHT22;794;48.592;9.634;2023-03-01T08:46:10;6.30;1.00
1602;DHT22;794;48.592;9.634;2023-03-01T08:48:41;5.60;1.00
1602;DHT22;794;48.592;9.634;2023-03-01T08:51:10;6.20;1.00
1602;DHT22;794;48.592;9.634;2023-03-01T08:53:38;5.30;1.00
1602;DHT22;794;48.592;9.634;2023-03-01T08:56:08;6.20;1.00
1602;DHT22;794;48.592;9.634;2023-03-01T08:58:37;5.90;1.00
1602;DHT22;794;48.592;9.634;2023-03-01T09:01:07;5.30;1.00
1602;DHT22;794;48.592;9.634;2023-03-01T09:03:34;5.50;1.00
1602;DHT22;794;48.592;9.634;2023-03-01T09:06:02;5.00;1.00
1602;DHT22;794;48.592;9.634;2023-03-01T09:08:29;5.60;1.00
1602;DHT22;794;48.592;9.634;2023-03-01T09:10:56;5.40;1.00
1602;DHT22;794;48.592;9.634;2023-03-01T09:13:23;6.60;1.00
1602;DHT22;794;48.592;9.634;2023-03-01T09:15:52;6.30;1.00
1602;DHT22;794;48.592;9.634;2023-03-01T09:18:19;5.90;1.00
1602;DHT22;794;48.592;9.634;2023-03-01T09:20:46;5.30;1.00
1602;DHT22;794;48.592;9.634;2023-03-01T09:23:13;5.80;1.00
1602;DHT22;794;48.592;9.634;2023-03-01T09:25:40;4.90;1.00
1602;DHT22;794;48.592;9.634;2023-03-01T09:28:07;4.70;1.00
1602;DHT22;794;48.592;9.634;2023-03-01T09:30:34;4.60;1.00
1602;DHT22;794;48.592;9.634;2023-03-01T09:33:02;4.40;1.00
1602;DHT22;794;48.592;9.634;2023-03-01T09:35:29;5.20;1.00
1602;DHT22;794;48.592;9.634;2023-03-01T09:37:56;3.80;1.00
1602;DHT22;794;48.592;9.634;2023-03-01T09:40:25;4.40;1.00
1602;DHT22;794;48.592;9.634;2023-03-01T09:42:56;2.80;1.00
1602;DHT22;794;48.592;9.634;2023-03-01T09:45:29;3.90;1.00
1602;DHT22;794;48.592;9.634;2023-03-01T09:48:02;4.10;1.00
1602;DHT22;794;48.592;9.634;2023-03-01T09:50:34;3.80;1.00
1602;DHT22;794;48.592;9.634;2023-03-01T09:53:04;4.00;1.00
1602;DHT22;794;48.592;9.634;2023-03-01T09:55:37;3.90;1.00
1602;DHT22;794;48.592;9.634;2023-03-01T09:58:25;5.30;1.00
1602;DHT22;794;48.592;9.634;2023-03-01T10:00:54;4.90;1.00
1602;DHT22;794;48.592;9.634;2023-03-01T10:03:26;4.50;1.00
1602;DHT22;794;48.592;9.634;2023-03-01T10:05:59;5.00;1.00
1602;DHT22;794;48.592;9.634;2023-03-01T10:08:34;3.80;1.00
1602;DHT22;794;48.592;9.634;2023-03-01T10:11:05;4.40;1.00
1602;DHT22;794;48.592;9.634;2023-03-01T10:13:46;4.40;1.00
1602;DHT22;794;48.592;9.634;2023-03-01T10:16:22;5.20;1.00
1602;DHT22;794;48.592;9.634;2023-03-01T10:18:55;5.30;1.00
1602;DHT22;794;48.592;9.634;2023-03-01T10:21:27;5.10;1.00
1602;DHT22;794;48.592;9.634;2023-03-01T10:24:10;5.30;1.00
1602;DHT22;794;48.592;9.634;2023-03-01T10:26:47;6.20;1.00
1602;DHT22;794;48.592;9.634;2023-03-01T10:29:14;5.90;1.00
1602;DHT22;794;48.592;9.634;2023-03-01T10:31:43;5.80;1.00
1602;DHT22;794;48.592;9.634;2023-03-01T10:34:14;6.30;1.00
1602;DHT22;794;48.592;9.634;2023-03-01T10:36:43;6.00;1.00
1602;DHT22;794;48.592;9.634;2023-03-01T10:39:16;6.30;1.00
1602;DHT22;794;48.592;9.634;2023-03-01T10:41:55;6.20;1.00
1602;DHT22;794;48.592;9.634;2023-03-01T10:44:40;6.40;1.00
1602;DHT22;794;48.592;9.634;2023-03-01T10:47:14;6.40;1.00
1602;DHT22;794;48.592;9.634;2023-03-01T10:50:02;6.10;1.00
1602;DHT22;794;48.592;9.634;2023-03-01T10:52:32;5.90;1.00
1602;DHT22;794;48.592;9.634;2023-03-01T10:55:04;8.10;1.00
1602;DHT22;794;48.592;9.634;2023-03-01T10:57:37;6.30;1.00
1602;DHT22;794;48.592;9.634;2023-03-01T11:00:24;6.20;1.00
1602;DHT22;794;48.592;9.634;2023-03-01T11:03:04;5.50;1.00
1602;DHT22;794;48.592;9.634;2023-03-01T11:05:51;4.60;1.00
1602;DHT22;794;48.592;9.634;2023-03-01T11:08:30;5.80;1.00
1602;DHT22;794;48.592;9.634;2023-03-01T11:11:19;5.80;1.00
1602;DHT22;794;48.592;9.634;2023-03-01T11:14:06;6.00;1.00
1602;DHT22;794;48.592;9.634;2023-03-01T11:16:36;4.80;1.00
1602;DHT22;794;48.592;9.634;2023-03-01T11:19:20;5.50;1.00
1602;DHT22;794;48.592;9.634;2023-03-01T11:21:55;6.30;1.00
1602;DHT22;794;48.592;9.634;2023-03-01T11:24:29;5.10;1.00
1602;DHT22;794;48.592;9.634;2023-03-01T11:26:57;5.20;1.00
1602;DHT22;794;48.592;9.634;2023-03-01T11:29:30;5.00;1.00
1602;DHT22;794;48.592;9.634;2023-03-01T11:32:01;5.20;1.00
1602;DHT22;794;48.592;9.634;2023-03-01T11:34:42;5.20;1.00
1602;DHT22;794;48.592;9.634;2023-03-01T11:37:21;5.40;1.00
1602;DHT22;794;48.592;9.634;2023-03-01T11:39:55;5.20;1.00
1602;DHT22;794;48.592;9.634;2023-03-01T11:42:31;5.40;1.00
1602;DHT22;794;48.592;9.634;2023-03-01T11:45:03;5.70;1.00
1602;DHT22;794;48.592;9.634;2023-03-01T11:47:47;5.40;1.00
1602;DHT22;794;48.592;9.634;2023-03-01T11:50:26;5.40;1.00
1602;DHT22;794;48.592;9.634;2023-03-01T11:53:08;4.90;1.00
1602;DHT22;794;48.592;9.634;2023-03-01T11:55:51;5.50;1.00
1602;DHT22;794;48.592;9.634;2023-03-01T11:58:33;5.50;1.00
1602;DHT22;794;48.592;9.634;2023-03-01T12:01:32;5.60;1.00
1602;DHT22;794;48.592;9.634;2023-03-01T12:04:26;5.60;1.00
1602;DHT22;794;48.592;9.634;2023-03-01T12:06:57;6.00;1.00
1602;DHT22;794;48.592;9.634;2023-03-01T12:09:38;4.90;1.00
1602;DHT22;794;48.592;9.634;2023-03-01T12:12:26;5.00;1.00
1602;DHT22;794;48.592;9.634;2023-03-01T12:18:02;5.20;1.00
1602;DHT22;794;48.592;9.634;2023-03-01T12:20:39;5.10;1.00
1602;DHT22;794;48.592;9.634;2023-03-01T12:23:26;5.60;1.00
1602;DHT22;794;48.592;9.634;2023-03-01T12:26:02;5.80;1.00
1602;DHT22;794;48.592;9.634;2023-03-01T12:28:51;5.60;1.00
1602;DHT22;794;48.592;9.634;2023-03-01T12:32:11;5.70;1.00
1602;DHT22;794;48.592;9.634;2023-03-01T12:37:56;5.60;1.00
1602;DHT22;794;48.592;9.634;2023-03-01T12:40:45;5.80;1.00
1602;DHT22;794;48.592;9.634;2023-03-01T12:43:24;5.80;1.00
1602;DHT22;794;48.592;9.634;2023-03-01T12:46:10;5.80;1.00
1602;DHT22;794;48.592;9.634;2023-03-01T12:48:50;6.00;1.00
1602;DHT22;794;48.592;9.634;2023-03-01T12:51:23;5.90;1.00
1602;DHT22;794;48.592;9.634;2023-03-01T12:53:53;6.30;1.00
1602;DHT22;794;48.592;9.634;2023-03-01T12:56:22;6.40;1.00
1602;DHT22;794;48.592;9.634;2023-03-01T12:58:59;5.80;1.00
1602;DHT22;794;48.592;9.634;2023-03-01T13:01:35;5.80;1.00
1602;DHT22;794;48.592;9.634;2023-03-01T13:04:26;6.10;1.00
1602;DHT22;794;48.592;9.634;2023-03-01T13:07:11;6.00;1.00
1602;DHT22;794;48.592;9.634;2023-03-01T13:09:49;4.50;1.00
1602;DHT22;794;48.592;9.634;2023-03-01T13:12:49;6.30;1.00
1602;DHT22;794;48.592;9.634;2023-03-01T13:15:34;6.50;1.00
1602;DHT22;794;48.592;9.634;2023-03-01T13:18:04;6.20;1.00
1602;DHT22;794;48.592;9.634;2023-03-01T13:20:53;6.50;1.00
1602;DHT22;794;48.592;9.634;2023-03-01T13:23:28;6.60;1.00
1602;DHT22;794;48.592;9.634;2023-03-01T13:26:04;5.40;1.00
1602;DHT22;794;48.592;9.634;2023-03-01T13:29:00;6.60;1.00
1602;DHT22;794;48.592;9.634;2023-03-01T13:31:58;6.80;1.00
1602;DHT22;794;48.592;9.634;2023-03-01T13:34:49;6.80;1.00
1602;DHT22;794;48.592;9.634;2023-03-01T13:37:31;6.70;1.00
1602;DHT22;794;48.592;9.634;2023-03-01T13:40:05;6.60;1.00
1602;DHT22;794;48.592;9.634;2023-03-01T13:42:41;6.70;1.00
1602;DHT22;794;48.592;9.634;2023-03-01T13:45:34;6.60;1.00
1602;DHT22;794;48.592;9.634;2023-03-01T13:48:09;6.50;1.00
1602;DHT22;794;48.592;9.634;2023-03-01T13:50:48;6.60;1.00
1602;DHT22;794;48.592;9.634;2023-03-01T13:53:18;6.30;1.00
1602;DHT22;794;48.592;9.634;2023-03-01T13:55:48;7.10;1.00
1602;DHT22;794;48.592;9.634;2023-03-01T13:58:21;6.90;1.00
1602;DHT22;794;48.592;9.634;2023-03-01T14:00:55;7.20;1.00
1602;DHT22;794;48.592;9.634;2023-03-01T14:03:24;6.40;1.00
1602;DHT22;794;48.592;9.634;2023-03-01T14:05:59;6.90;1.00
1602;DHT22;794;48.592;9.634;2023-03-01T14:08:28;6.90;1.00
1602;DHT22;794;48.592;9.634;2023-03-01T14:11:29;6.70;1.00
1602;DHT22;794;48.592;9.634;2023-03-01T14:14:17;6.70;1.00
1602;DHT22;794;48.592;9.634;2023-03-01T14:16:56;6.90;1.00
1602;DHT22;794;48.592;9.634;2023-03-01T14:19:28;7.10;1.00
1602;DHT22;794;48.592;9.634;2023-03-01T14:22:12;6.80;1.00
1602;DHT22;794;48.592;9.634;2023-03-01T14:24:44;6.70;1.00
1602;DHT22;794;48.592;9.634;2023-03-01T14:27:13;7.10;1.00
1602;DHT22;794;48.592;9.634;2023-03-01T14:29:41;6.70;1.00
1602;DHT22;794;48.592;9.634;2023-03-01T14:32:12;6.60;1.00
1602;DHT22;794;48.592;9.634;2023-03-01T14:34:47;6.50;1.00
1602;DHT22;794;48.592;9.634;2023-03-01T14:37:24;6.80;1.00
1602;DHT22;794;48.592;9.634;2023-03-01T14:39:52;6.40;1.00
1602;DHT22;794;48.592;9.634;2023-03-01T14:42:21;6.60;1.00
1602;DHT22;794;48.592;9.634;2023-03-01T14:44:50;6.90;1.00
1602;DHT22;794;48.592;9.634;2023-03-01T14:47:25;7.10;1.00
1602;DHT22;794;48.592;9.634;2023-03-01T14:49:58;6.80;1.00
1602;DHT22;794;48.592;9.634;2023-03-01T14:52:37;6.60;1.00
1602;DHT22;794;48.592;9.634;2023-03-01T14:55:13;7.00;1.00
1602;DHT22;794;48.592;9.634;2023-03-01T14:57:43;6.80;1.00
1602;DHT22;794;48.592;9.634;2023-03-01T15:00:17;6.80;1.00
1602;DHT22;794;48.592;9.634;2023-03-01T15:02:45;6.30;1.00
1602;DHT22;794;48.592;9.634;2023-03-01T15:05:24;6.40;1.00
1602;DHT22;794;48.592;9.634;2023-03-01T15:07:53;6.60;1.00
1602;DHT22;794;48.592;9.634;2023-03-01T15:10:22;6.40;1.00
1602;DHT22;794;48.592;9.634;2023-03-01T15:12:49;6.60;1.00
1602;DHT22;794;48.592;9.634;2023-03-01T15:15:36;6.20;1.00
1602;DHT22;794;48.592;9.634;2023-03-01T15:18:13;6.70;1.00
1602;DHT22;794;48.592;9.634;2023-03-01T15:20:42;6.50;1.00
1602;DHT22;794;48.592;9.634;2023-03-01T15:23:19;6.40;1.00
1602;DHT22;794;48.592;9.634;2023-03-01T15:25:47;6.80;1.00
1602;DHT22;794;48.592;9.634;2023-03-01T15:28:23;6.70;1.00
1602;DHT22;794;48.592;9.634;2023-03-01T15:30:56;6.40;1.00
1602;DHT22;794;48.592;9.634;2023-03-01T15:33:33;6.50;1.00
1602;DHT22;794;48.592;9.634;2023-03-01T15:36:04;6.90;1.00
1602;DHT22;794;48.592;9.634;2023-03-01T15:38:53;6.30;1.00
1602;DHT22;794;48.592;9.634;2023-03-01T15:41:25;6.70;1.00
1602;DHT22;794;48.592;9.634;2023-03-01T15:43:53;6.20;1.00
1602;DHT22;794;48.592;9.634;2023-03-01T15:46:26;7.60;1.00
1602;DHT22;794;48.592;9.634;2023-03-01T15:48:55;6.40;1.00
1602;DHT22;794;48.592;9.634;2023-03-01T15:51:28;6.40;1.00
1602;DHT22;794;48.592;9.634;2023-03-01T15:53:59;6.30;1.00
1602;DHT22;794;48.592;9.634;2023-03-01T15:56:27;6.50;1.00
1602;DHT22;794;48.592;9.634;2023-03-01T15:58:58;5.90;1.00
1602;DHT22;794;48.592;9.634;2023-03-01T16:01:25;6.20;1.00
1602;DHT22;794;48.592;9.634;2023-03-01T16:03:52;6.10;1.00
1602;DHT22;794;48.592;9.634;2023-03-01T16:06:20;6.30;1.00
1602;DHT22;794;48.592;9.634;2023-03-01T16:08:47;6.10;1.00
1602;DHT22;794;48.592;9.634;2023-03-01T16:11:18;6.20;1.00
1602;DHT22;794;48.592;9.634;2023-03-01T16:13:45;6.00;1.00
1602;DHT22;794;48.592;9.634;2023-03-01T16:16:13;5.50;1.00
1602;DHT22;794;48.592;9.634;2023-03-01T16:18:43;5.60;1.00
1602;DHT22;794;48.592;9.634;2023-03-01T16:21:20;5.70;1.00
1602;DHT22;794;48.592;9.634;2023-03-01T16:23:48;4.90;1.00
1602;DHT22;794;48.592;9.634;2023-03-01T16:26:17;5.80;1.00
1602;DHT22;794;48.592;9.634;2023-03-01T16:28:44;5.40;1.00
1602;DHT22;794;48.592;9.634;2023-03-01T16:31:16;5.60;1.00
1602;DHT22;794;48.592;9.634;2023-03-01T16:33:43;5.50;1.00
1602;DHT22;794;48.592;9.634;2023-03-01T16:36:16;5.20;1.00
1602;DHT22;794;48.592;9.634;2023-03-01T16:38:44;5.50;1.00
1602;DHT22;794;48.592;9.634;2023-03-01T16:41:13;5.70;1.00
1602;DHT22;794;48.592;9.634;2023-03-01T16:43:42;5.30;1.00
1602;DHT22;794;48.592;9.634;2023-03-01T16:46:13;5.20;1.00
1602;DHT22;794;48.592;9.634;2023-03-01T16:48:41;5.20;1.00
1602;DHT22;794;48.592;9.634;2023-03-01T16:51:08;5.10;1.00
1602;DHT22;794;48.592;9.634;2023-03-01T16:53:36;5.50;1.00
1602;DHT22;794;48.592;9.634;2023-03-01T16:56:05;5.00;1.00
1602;DHT22;794;48.592;9.634;2023-03-01T16:58:33;5.10;1.00
1602;DHT22;794;48.592;9.634;2023-03-01T17:01:10;4.60;1.00
1602;DHT22;794;48.592;9.634;2023-03-01T17:03:38;4.80;1.00
1602;DHT22;794;48.592;9.634;2023-03-01T17:06:11;5.10;1.00
1602;DHT22;794;48.592;9.634;2023-03-01T17:08:39;5.00;1.00
1602;DHT22;794;48.592;9.634;2023-03-01T17:11:07;4.90;1.00
1602;DHT22;794;48.592;9.634;2023-03-01T17:13:35;4.60;1.00
1602;DHT22;794;48.592;9.634;2023-03-01T17:16:04;4.90;1.00
1602;DHT22;794;48.592;9.634;2023-03-01T17:18:33;4.80;1.00
1602;DHT22;794;48.592;9.634;2023-03-01T17:21:00;5.00;1.00
1602;DHT22;794;48.592;9.634;2023-03-01T17:23:28;4.30;1.00